sensor_id;sensor_type;location;lat;lon;timestamp;P1;durP1;ratioP1;P2;durP2;ratioP2
5904;SDS011;2978;42.012;24.880;2023-04-20T00:01:45;2.50;;;2.30;;
5904;SDS011;2978;42.012;24.880;2023-04-20T00:04:11;4.70;;;2.70;;
5904;SDS011;2978;42.012;24.880;2023-04-20T00:06:39;2.77;;;2.43;;
5904;SDS011;2978;42.012;24.880;2023-04-20T00:09:06;7.10;;;2.40;;
5904;SDS011;2978;42.012;24.880;2023-04-20T00:11:32;3.70;;;2.57;;
5904;SDS011;2978;42.012;24.880;2023-04-20T00:13:58;5.70;;;3.10;;
5904;SDS011;2978;42.012;24.880;2023-04-20T00:16:23;3.83;;;2.37;;
5904;SDS011;2978;42.012;24.880;2023-04-20T00:18:49;3.23;;;2.43;;
5904;SDS011;2978;42.012;24.880;2023-04-20T00:21:15;4.17;;;2.70;;
5904;SDS011;2978;42.012;24.880;2023-04-20T00:23:41;4.87;;;3.07;;
5904;SDS011;2978;42.012;24.880;2023-04-20T00:26:06;5.17;;;2.87;;
5904;SDS011;2978;42.012;24.880;2023-04-20T00:28:32;4.80;;;3.70;;
5904;SDS011;2978;42.012;24.880;2023-04-20T00:30:57;4.10;;;3.13;;
5904;SDS011;2978;42.012;24.880;2023-04-20T00:33:23;6.50;;;3.60;;
5904;SDS011;2978;42.012;24.880;2023-04-20T00:35:48;3.20;;;2.90;;
5904;SDS011;2978;42.012;24.880;2023-04-20T00:38:14;3.57;;;2.23;;
5904;SDS011;2978;42.012;24.880;2023-04-20T00:40:41;5.40;;;2.60;;
5904;SDS011;2978;42.012;24.880;2023-04-20T00:43:11;2.90;;;2.37;;
5904;SDS011;2978;42.012;24.880;2023-04-20T00:45:37;3.57;;;2.90;;
5904;SDS011;2978;42.012;24.880;2023-04-20T00:48:03;2.67;;;2.40;;
5904;SDS011;2978;42.012;24.880;2023-04-20T00:50:29;5.80;;;2.80;;
5904;SDS011;2978;42.012;24.880;2023-04-20T00:52:55;3.60;;;3.30;;
5904;SDS011;2978;42.012;24.880;2023-04-20T00:55:21;4.17;;;3.20;;
5904;SDS011;2978;42.012;24.880;2023-04-20T00:57:47;8.90;;;3.77;;
5904;SDS011;2978;42.012;24.880;2023-04-20T01:00:13;3.40;;;3.10;;
5904;SDS011;2978;42.012;24.880;2023-04-20T01:02:39;3.70;;;3.27;;
5904;SDS011;2978;42.012;24.880;2023-04-20T01:05:04;5.80;;;3.73;;
5904;SDS011;2978;42.012;24.880;2023-04-20T01:07:30;4.30;;;3.90;;
5904;SDS011;2978;42.012;24.880;2023-04-20T01:09:56;11.63;;;4.00;;
5904;SDS011;2978;42.012;24.880;2023-04-20T01:12:22;4.57;;;4.17;;
5904;SDS011;2978;42.012;24.880;2023-04-20T01:14:47;4.80;;;4.30;;
5904;SDS011;2978;42.012;24.880;2023-04-20T01:17:12;6.33;;;4.97;;
5904;SDS011;2978;42.012;24.880;2023-04-20T01:19:39;7.30;;;4.50;;
5904;SDS011;2978;42.012;24.880;2023-04-20T01:22:06;5.40;;;4.40;;
5904;SDS011;2978;42.012;24.880;2023-04-20T01:24:32;4.17;;;3.77;;
5904;SDS011;2978;42.012;24.880;2023-04-20T01:26:58;10.30;;;4.17;;
5904;SDS011;2978;42.012;24.880;2023-04-20T01:29:23;6.90;;;3.87;;
5904;SDS011;2978;42.012;24.880;2023-04-20T01:31:49;4.97;;;4.40;;
5904;SDS011;2978;42.012;24.880;2023-04-20T01:34:14;6.17;;;4.07;;
5904;SDS011;2978;42.012;24.880;2023-04-20T01:36:41;7.07;;;4.63;;
5904;SDS011;2978;42.012;24.880;2023-04-20T01:39:07;7.07;;;4.70;;
5904;SDS011;2978;42.012;24.880;2023-04-20T01:41:33;5.10;;;4.30;;
5904;SDS011;2978;42.012;24.880;2023-04-20T01:43:59;17.10;;;5.00;;
5904;SDS011;2978;42.012;24.880;2023-04-20T01:46:24;3.87;;;3.40;;
5904;SDS011;2978;42.012;24.880;2023-04-20T01:48:50;6.63;;;4.23;;
5904;SDS011;2978;42.012;24.880;2023-04-20T01:51:15;7.53;;;3.50;;
5904;SDS011;2978;42.012;24.880;2023-04-20T01:53:41;7.37;;;3.77;;
5904;SDS011;2978;42.012;24.880;2023-04-20T01:56:06;10.70;;;4.10;;
5904;SDS011;2978;42.012;24.880;2023-04-20T01:58:31;5.37;;;3.60;;
5904;SDS011;2978;42.012;24.880;2023-04-20T02:00:57;14.47;;;4.33;;
5904;SDS011;2978;42.012;24.880;2023-04-20T02:03:24;7.00;;;4.03;;
5904;SDS011;2978;42.012;24.880;2023-04-20T02:05:50;9.47;;;4.30;;
5904;SDS011;2978;42.012;24.880;2023-04-20T02:08:15;10.10;;;5.00;;
5904;SDS011;2978;42.012;24.880;2023-04-20T02:10:41;9.40;;;4.00;;
5904;SDS011;2978;42.012;24.880;2023-04-20T02:13:06;10.10;;;4.70;;
5904;SDS011;2978;42.012;24.880;2023-04-20T02:15:32;6.60;;;4.50;;
5904;SDS011;2978;42.012;24.880;2023-04-20T02:17:57;9.53;;;4.53;;
5904;SDS011;2978;42.012;24.880;2023-04-20T02:20:23;5.23;;;4.70;;
5904;SDS011;2978;42.012;24.880;2023-04-20T02:22:48;9.00;;;5.40;;
5904;SDS011;2978;42.012;24.880;2023-04-20T02:25:14;6.63;;;4.93;;
5904;SDS011;2978;42.012;24.880;2023-04-20T02:27:39;9.87;;;5.60;;
5904;SDS011;2978;42.012;24.880;2023-04-20T02:30:05;7.53;;;5.43;;
5904;SDS011;2978;42.012;24.880;2023-04-20T02:32:32;9.33;;;5.50;;
5904;SDS011;2978;42.012;24.880;2023-04-20T02:34:59;8.97;;;5.53;;
5904;SDS011;2978;42.012;24.880;2023-04-20T02:37:24;5.77;;;5.17;;
5904;SDS011;2978;42.012;24.880;2023-04-20T02:39:51;8.17;;;5.47;;
5904;SDS011;2978;42.012;24.880;2023-04-20T02:42:16;6.37;;;5.80;;
5904;SDS011;2978;42.012;24.880;2023-04-20T02:44:42;8.37;;;5.70;;
5904;SDS011;2978;42.012;24.880;2023-04-20T02:47:07;9.20;;;5.93;;
5904;SDS011;2978;42.012;24.880;2023-04-20T02:49:32;9.90;;;5.80;;
5904;SDS011;2978;42.012;24.880;2023-04-20T02:51:58;7.27;;;6.27;;
5904;SDS011;2978;42.012;24.880;2023-04-20T02:54:23;12.63;;;5.23;;
5904;SDS011;2978;42.012;24.880;2023-04-20T02:56:49;8.93;;;5.47;;
5904;SDS011;2978;42.012;24.880;2023-04-20T02:59:14;9.23;;;5.13;;
5904;SDS011;2978;42.012;24.880;2023-04-20T03:01:40;10.93;;;6.47;;
5904;SDS011;2978;42.012;24.880;2023-04-20T03:04:05;10.70;;;5.90;;
5904;SDS011;2978;42.012;24.880;2023-04-20T03:06:31;13.43;;;5.70;;
5904;SDS011;2978;42.012;24.880;2023-04-20T03:08:57;11.93;;;5.10;;
5904;SDS011;2978;42.012;24.880;2023-04-20T03:11:22;15.03;;;5.80;;
5904;SDS011;2978;42.012;24.880;2023-04-20T03:13:48;8.43;;;5.73;;
5904;SDS011;2978;42.012;24.880;2023-04-20T03:16:13;12.00;;;5.60;;
5904;SDS011;2978;42.012;24.880;2023-04-20T03:18:38;14.73;;;6.03;;
5904;SDS011;2978;42.012;24.880;2023-04-20T03:21:04;8.63;;;5.70;;
5904;SDS011;2978;42.012;24.880;2023-04-20T03:23:29;13.93;;;5.90;;
5904;SDS011;2978;42.012;24.880;2023-04-20T03:25:55;7.70;;;6.00;;
5904;SDS011;2978;42.012;24.880;2023-04-20T03:28:21;8.97;;;5.90;;
5904;SDS011;2978;42.012;24.880;2023-04-20T03:30:46;17.17;;;6.07;;
5904;SDS011;2978;42.012;24.880;2023-04-20T03:33:12;13.60;;;5.80;;
5904;SDS011;2978;42.012;24.880;2023-04-20T03:35:37;12.17;;;6.40;;
5904;SDS011;2978;42.012;24.880;2023-04-20T03:38:03;15.53;;;6.00;;
5904;SDS011;2978;42.012;24.880;2023-04-20T03:40:29;12.53;;;7.00;;
5904;SDS011;2978;42.012;24.880;2023-04-20T03:42:54;19.17;;;6.00;;
5904;SDS011;2978;42.012;24.880;2023-04-20T03:45:20;11.47;;;4.13;;
5904;SDS011;2978;42.012;24.880;2023-04-20T03:47:45;14.10;;;5.60;;
5904;SDS011;2978;42.012;24.880;2023-04-20T03:50:11;9.60;;;6.23;;
5904;SDS011;2978;42.012;24.880;2023-04-20T03:52:36;16.50;;;7.00;;
5904;SDS011;2978;42.012;24.880;2023-04-20T03:55:02;8.93;;;6.77;;
5904;SDS011;2978;42.012;24.880;2023-04-20T03:57:27;15.20;;;6.00;;
5904;SDS011;2978;42.012;24.880;2023-04-20T03:59:53;13.53;;;7.57;;
5904;SDS011;2978;42.012;24.880;2023-04-20T04:02:18;13.57;;;7.07;;
5904;SDS011;2978;42.012;24.880;2023-04-20T04:04:46;17.23;;;7.17;;
5904;SDS011;2978;42.012;24.880;2023-04-20T04:07:11;13.80;;;6.73;;
5904;SDS011;2978;42.012;24.880;2023-04-20T04:09:37;20.03;;;5.70;;
5904;SDS011;2978;42.012;24.880;2023-04-20T04:12:02;7.00;;;5.50;;
5904;SDS011;2978;42.012;24.880;2023-04-20T04:14:28;15.03;;;6.23;;
5904;SDS011;2978;42.012;24.880;2023-04-20T04:16:54;10.10;;;5.90;;
5904;SDS011;2978;42.012;24.880;2023-04-20T04:19:20;12.53;;;5.43;;
5904;SDS011;2978;42.012;24.880;2023-04-20T04:21:45;12.63;;;6.50;;
5904;SDS011;2978;42.012;24.880;2023-04-20T04:24:11;10.97;;;6.17;;
5904;SDS011;2978;42.012;24.880;2023-04-20T04:26:36;11.37;;;6.10;;
5904;SDS011;2978;42.012;24.880;2023-04-20T04:29:02;12.03;;;5.13;;
5904;SDS011;2978;42.012;24.880;2023-04-20T04:31:28;10.70;;;4.80;;
5904;SDS011;2978;42.012;24.880;2023-04-20T04:33:56;5.20;;;4.50;;
5904;SDS011;2978;42.012;24.880;2023-04-20T04:36:22;17.13;;;5.40;;
5904;SDS011;2978;42.012;24.880;2023-04-20T04:38:48;16.07;;;5.57;;
5904;SDS011;2978;42.012;24.880;2023-04-20T04:41:13;13.90;;;5.77;;
5904;SDS011;2978;42.012;24.880;2023-04-20T04:43:39;9.87;;;5.00;;
5904;SDS011;2978;42.012;24.880;2023-04-20T04:46:08;20.47;;;5.70;;
5904;SDS011;2978;42.012;24.880;2023-04-20T04:48:35;4.57;;;3.80;;
5904;SDS011;2978;42.012;24.880;2023-04-20T04:51:01;10.67;;;4.13;;
5904;SDS011;2978;42.012;24.880;2023-04-20T04:53:27;11.47;;;4.80;;
5904;SDS011;2978;42.012;24.880;2023-04-20T04:55:53;7.63;;;4.40;;
5904;SDS011;2978;42.012;24.880;2023-04-20T04:58:18;18.23;;;6.30;;
5904;SDS011;2978;42.012;24.880;2023-04-20T05:00:43;19.97;;;5.30;;
5904;SDS011;2978;42.012;24.880;2023-04-20T05:03:09;7.07;;;4.97;;
5904;SDS011;2978;42.012;24.880;2023-04-20T05:05:34;20.17;;;5.13;;
5904;SDS011;2978;42.012;24.880;2023-04-20T05:08:00;32.07;;;6.40;;
5904;SDS011;2978;42.012;24.880;2023-04-20T05:10:26;8.30;;;5.30;;
5904;SDS011;2978;42.012;24.880;2023-04-20T05:12:51;10.20;;;4.40;;
5904;SDS011;2978;42.012;24.880;2023-04-20T05:15:17;4.93;;;4.40;;
5904;SDS011;2978;42.012;24.880;2023-04-20T05:17:42;7.87;;;5.30;;
5904;SDS011;2978;42.012;24.880;2023-04-20T05:20:08;8.07;;;5.00;;
5904;SDS011;2978;42.012;24.880;2023-04-20T05:22:35;11.53;;;6.30;;
5904;SDS011;2978;42.012;24.880;2023-04-20T05:25:01;9.60;;;5.50;;
5904;SDS011;2978;42.012;24.880;2023-04-20T05:27:26;30.60;;;9.57;;
5904;SDS011;2978;42.012;24.880;2023-04-20T05:29:52;20.80;;;7.30;;
5904;SDS011;2978;42.012;24.880;2023-04-20T05:32:17;21.67;;;6.43;;
5904;SDS011;2978;42.012;24.880;2023-04-20T05:34:43;14.60;;;5.80;;
5904;SDS011;2978;42.012;24.880;2023-04-20T05:37:08;9.63;;;5.57;;
5904;SDS011;2978;42.012;24.880;2023-04-20T05:39:34;9.50;;;5.63;;
5904;SDS011;2978;42.012;24.880;2023-04-20T05:41:59;11.30;;;4.70;;
5904;SDS011;2978;42.012;24.880;2023-04-20T05:44:25;19.97;;;5.70;;
5904;SDS011;2978;42.012;24.880;2023-04-20T05:46:51;18.63;;;6.67;;
5904;SDS011;2978;42.012;24.880;2023-04-20T05:49:16;17.27;;;7.07;;
5904;SDS011;2978;42.012;24.880;2023-04-20T05:51:42;12.63;;;5.07;;
5904;SDS011;2978;42.012;24.880;2023-04-20T05:54:07;10.37;;;6.03;;
5904;SDS011;2978;42.012;24.880;2023-04-20T05:56:33;14.00;;;5.37;;
5904;SDS011;2978;42.012;24.880;2023-04-20T05:58:59;13.23;;;5.13;;
5904;SDS011;2978;42.012;24.880;2023-04-20T06:01:24;17.00;;;5.37;;
5904;SDS011;2978;42.012;24.880;2023-04-20T06:03:50;12.70;;;5.10;;
5904;SDS011;2978;42.012;24.880;2023-04-20T06:06:16;19.93;;;5.10;;
5904;SDS011;2978;42.012;24.880;2023-04-20T06:08:41;8.27;;;5.10;;
5904;SDS011;2978;42.012;24.880;2023-04-20T06:11:07;11.80;;;4.80;;
5904;SDS011;2978;42.012;24.880;2023-04-20T06:13:32;8.10;;;4.90;;
5904;SDS011;2978;42.012;24.880;2023-04-20T06:15:58;15.13;;;5.87;;
5904;SDS011;2978;42.012;24.880;2023-04-20T06:21:39;11.53;;;6.10;;
5904;SDS011;2978;42.012;24.880;2023-04-20T06:24:05;21.27;;;12.80;;
5904;SDS011;2978;42.012;24.880;2023-04-20T06:26:31;34.37;;;8.90;;
5904;SDS011;2978;42.012;24.880;2023-04-20T06:28:59;15.13;;;5.20;;
5904;SDS011;2978;42.012;24.880;2023-04-20T06:31:28;23.60;;;7.40;;
5904;SDS011;2978;42.012;24.880;2023-04-20T06:33:54;8.37;;;5.63;;
5904;SDS011;2978;42.012;24.880;2023-04-20T06:36:19;14.73;;;6.37;;
5904;SDS011;2978;42.012;24.880;2023-04-20T06:38:45;16.13;;;7.27;;
5904;SDS011;2978;42.012;24.880;2023-04-20T06:44:34;11.07;;;6.67;;
5904;SDS011;2978;42.012;24.880;2023-04-20T06:46:59;7.03;;;5.83;;
5904;SDS011;2978;42.012;24.880;2023-04-20T06:49:43;11.30;;;6.83;;
5904;SDS011;2978;42.012;24.880;2023-04-20T06:58:23;9.50;;;6.60;;
5904;SDS011;2978;42.012;24.880;2023-04-20T07:00:48;7.70;;;6.27;;
5904;SDS011;2978;42.012;24.880;2023-04-20T07:03:13;5.93;;;5.03;;
5904;SDS011;2978;42.012;24.880;2023-04-20T07:05:39;8.70;;;5.87;;
5904;SDS011;2978;42.012;24.880;2023-04-20T07:08:05;6.80;;;5.07;;
5904;SDS011;2978;42.012;24.880;2023-04-20T07:10:30;8.00;;;5.40;;
5904;SDS011;2978;42.012;24.880;2023-04-20T07:12:56;6.07;;;5.10;;
5904;SDS011;2978;42.012;24.880;2023-04-20T07:15:21;6.30;;;5.70;;
5904;SDS011;2978;42.012;24.880;2023-04-20T07:17:47;10.93;;;6.80;;
5904;SDS011;2978;42.012;24.880;2023-04-20T07:20:12;7.00;;;4.80;;
5904;SDS011;2978;42.012;24.880;2023-04-20T07:22:37;9.13;;;7.43;;
5904;SDS011;2978;42.012;24.880;2023-04-20T07:25:04;15.73;;;9.10;;
5904;SDS011;2978;42.012;24.880;2023-04-20T07:27:37;6.03;;;5.43;;
5904;SDS011;2978;42.012;24.880;2023-04-20T07:30:04;6.43;;;4.90;;
5904;SDS011;2978;42.012;24.880;2023-04-20T07:32:34;7.53;;;5.17;;
5904;SDS011;2978;42.012;24.880;2023-04-20T07:35:00;6.63;;;5.37;;
5904;SDS011;2978;42.012;24.880;2023-04-20T07:37:28;8.53;;;5.50;;
5904;SDS011;2978;42.012;24.880;2023-04-20T07:39:55;7.30;;;5.20;;
5904;SDS011;2978;42.012;24.880;2023-04-20T07:42:20;7.60;;;5.90;;
5904;SDS011;2978;42.012;24.880;2023-04-20T07:44:46;6.80;;;5.30;;
5904;SDS011;2978;42.012;24.880;2023-04-20T07:47:12;7.87;;;5.30;;
5904;SDS011;2978;42.012;24.880;2023-04-20T07:49:37;8.67;;;5.50;;
5904;SDS011;2978;42.012;24.880;2023-04-20T07:52:07;6.73;;;4.63;;
5904;SDS011;2978;42.012;24.880;2023-04-20T07:54:32;7.07;;;5.83;;
5904;SDS011;2978;42.012;24.880;2023-04-20T07:56:58;7.40;;;5.30;;
5904;SDS011;2978;42.012;24.880;2023-04-20T07:59:24;9.43;;;5.73;;
5904;SDS011;2978;42.012;24.880;2023-04-20T08:01:49;7.70;;;5.27;;
5904;SDS011;2978;42.012;24.880;2023-04-20T08:04:15;20.23;;;6.23;;
5904;SDS011;2978;42.012;24.880;2023-04-20T08:06:41;7.30;;;5.80;;
5904;SDS011;2978;42.012;24.880;2023-04-20T08:09:07;7.43;;;5.60;;
5904;SDS011;2978;42.012;24.880;2023-04-20T08:11:32;8.73;;;6.03;;
5904;SDS011;2978;42.012;24.880;2023-04-20T08:13:58;7.03;;;5.90;;
5904;SDS011;2978;42.012;24.880;2023-04-20T08:16:29;8.70;;;6.00;;
5904;SDS011;2978;42.012;24.880;2023-04-20T08:18:55;9.63;;;6.67;;
5904;SDS011;2978;42.012;24.880;2023-04-20T08:21:20;8.80;;;6.40;;
5904;SDS011;2978;42.012;24.880;2023-04-20T08:23:47;10.13;;;7.03;;
5904;SDS011;2978;42.012;24.880;2023-04-20T08:26:15;12.60;;;7.00;;
5904;SDS011;2978;42.012;24.880;2023-04-20T08:28:41;8.87;;;5.63;;
5904;SDS011;2978;42.012;24.880;2023-04-20T08:31:08;8.60;;;5.50;;
5904;SDS011;2978;42.012;24.880;2023-04-20T08:36:46;6.40;;;5.27;;
5904;SDS011;2978;42.012;24.880;2023-04-20T08:39:18;7.87;;;5.20;;
5904;SDS011;2978;42.012;24.880;2023-04-20T08:41:45;10.07;;;6.40;;
5904;SDS011;2978;42.012;24.880;2023-04-20T08:44:12;7.63;;;6.00;;
5904;SDS011;2978;42.012;24.880;2023-04-20T08:46:37;6.60;;;5.40;;
5904;SDS011;2978;42.012;24.880;2023-04-20T08:49:08;11.20;;;6.30;;
5904;SDS011;2978;42.012;24.880;2023-04-20T08:51:38;7.20;;;5.20;;
5904;SDS011;2978;42.012;24.880;2023-04-20T08:54:04;14.23;;;6.20;;
5904;SDS011;2978;42.012;24.880;2023-04-20T08:56:37;7.97;;;5.90;;
5904;SDS011;2978;42.012;24.880;2023-04-20T08:59:04;6.60;;;5.07;;
5904;SDS011;2978;42.012;24.880;2023-04-20T09:01:30;10.10;;;5.07;;
5904;SDS011;2978;42.012;24.880;2023-04-20T09:03:58;7.20;;;5.07;;
5904;SDS011;2978;42.012;24.880;2023-04-20T09:06:24;7.00;;;5.20;;
5904;SDS011;2978;42.012;24.880;2023-04-20T09:08:49;7.70;;;5.20;;
5904;SDS011;2978;42.012;24.880;2023-04-20T09:11:25;8.23;;;5.80;;
5904;SDS011;2978;42.012;24.880;2023-04-20T09:19:23;10.07;;;5.80;;
5904;SDS011;2978;42.012;24.880;2023-04-20T09:21:50;7.10;;;5.60;;
5904;SDS011;2978;42.012;24.880;2023-04-20T09:24:18;12.23;;;6.13;;
5904;SDS011;2978;42.012;24.880;2023-04-20T09:26:45;8.53;;;5.03;;
5904;SDS011;2978;42.012;24.880;2023-04-20T09:29:20;7.87;;;5.40;;
5904;SDS011;2978;42.012;24.880;2023-04-20T09:31:47;7.10;;;5.50;;
5904;SDS011;2978;42.012;24.880;2023-04-20T09:34:14;13.33;;;6.17;;
5904;SDS011;2978;42.012;24.880;2023-04-20T09:36:45;5.90;;;5.20;;
5904;SDS011;2978;42.012;24.880;2023-04-20T09:39:17;8.63;;;6.10;;
5904;SDS011;2978;42.012;24.880;2023-04-20T09:41:45;8.33;;;4.90;;
5904;SDS011;2978;42.012;24.880;2023-04-20T09:44:11;8.20;;;6.13;;
5904;SDS011;2978;42.012;24.880;2023-04-20T09:46:38;10.10;;;6.30;;
5904;SDS011;2978;42.012;24.880;2023-04-20T09:49:06;9.23;;;6.10;;
5904;SDS011;2978;42.012;24.880;2023-04-20T09:51:33;9.10;;;5.97;;
5904;SDS011;2978;42.012;24.880;2023-04-20T09:54:01;6.93;;;5.53;;
5904;SDS011;2978;42.012;24.880;2023-04-20T09:56:27;6.67;;;5.20;;
5904;SDS011;2978;42.012;24.880;2023-04-20T09:58:54;8.30;;;5.60;;
5904;SDS011;2978;42.012;24.880;2023-04-20T10:01:20;11.20;;;5.10;;
5904;SDS011;2978;42.012;24.880;2023-04-20T10:03:46;6.73;;;5.97;;
5904;SDS011;2978;42.012;24.880;2023-04-20T10:06:19;7.53;;;5.87;;
5904;SDS011;2978;42.012;24.880;2023-04-20T10:08:50;7.73;;;6.53;;
5904;SDS011;2978;42.012;24.880;2023-04-20T10:20:42;11.40;;;6.17;;
5904;SDS011;2978;42.012;24.880;2023-04-20T10:23:11;5.67;;;4.70;;
5904;SDS011;2978;42.012;24.880;2023-04-20T10:25:38;6.10;;;4.80;;
5904;SDS011;2978;42.012;24.880;2023-04-20T10:28:04;10.57;;;5.97;;
5904;SDS011;2978;42.012;24.880;2023-04-20T10:30:33;8.13;;;5.83;;
5904;SDS011;2978;42.012;24.880;2023-04-20T10:33:06;10.40;;;6.20;;
5904;SDS011;2978;42.012;24.880;2023-04-20T10:38:42;7.00;;;5.73;;
5904;SDS011;2978;42.012;24.880;2023-04-20T10:41:10;7.63;;;5.07;;
5904;SDS011;2978;42.012;24.880;2023-04-20T10:43:36;6.97;;;5.20;;
5904;SDS011;2978;42.012;24.880;2023-04-20T10:46:20;7.40;;;5.17;;
5904;SDS011;2978;42.012;24.880;2023-04-20T10:48:50;7.20;;;5.50;;
5904;SDS011;2978;42.012;24.880;2023-04-20T10:51:16;8.67;;;5.60;;
5904;SDS011;2978;42.012;24.880;2023-04-20T10:53:42;5.50;;;5.00;;
5904;SDS011;2978;42.012;24.880;2023-04-20T10:56:08;8.50;;;5.60;;
5904;SDS011;2978;42.012;24.880;2023-04-20T10:58:34;6.67;;;5.43;;
5904;SDS011;2978;42.012;24.880;2023-04-20T11:01:01;7.63;;;5.00;;
5904;SDS011;2978;42.012;24.880;2023-04-20T11:03:28;6.50;;;5.23;;
5904;SDS011;2978;42.012;24.880;2023-04-20T11:05:55;11.33;;;5.53;;
5904;SDS011;2978;42.012;24.880;2023-04-20T11:08:34;6.63;;;4.63;;
5904;SDS011;2978;42.012;24.880;2023-04-20T11:11:03;9.07;;;5.70;;
5904;SDS011;2978;42.012;24.880;2023-04-20T11:13:29;6.90;;;5.93;;
5904;SDS011;2978;42.012;24.880;2023-04-20T11:15:56;7.93;;;5.80;;
5904;SDS011;2978;42.012;24.880;2023-04-20T11:18:22;6.07;;;5.20;;
5904;SDS011;2978;42.012;24.880;2023-04-20T11:23:20;6.27;;;5.47;;
5904;SDS011;2978;42.012;24.880;2023-04-20T11:25:53;6.57;;;5.87;;
5904;SDS011;2978;42.012;24.880;2023-04-20T11:28:20;5.63;;;5.10;;
5904;SDS011;2978;42.012;24.880;2023-04-20T11:30:46;6.80;;;5.63;;
5904;SDS011;2978;42.012;24.880;2023-04-20T11:33:13;8.97;;;5.63;;
5904;SDS011;2978;42.012;24.880;2023-04-20T11:35:40;8.57;;;5.87;;
5904;SDS011;2978;42.012;24.880;2023-04-20T11:38:07;14.20;;;7.23;;
5904;SDS011;2978;42.012;24.880;2023-04-20T11:40:33;7.80;;;5.80;;
5904;SDS011;2978;42.012;24.880;2023-04-20T11:42:59;6.60;;;5.63;;
5904;SDS011;2978;42.012;24.880;2023-04-20T11:45:25;10.30;;;5.70;;
5904;SDS011;2978;42.012;24.880;2023-04-20T11:47:54;9.27;;;6.13;;
5904;SDS011;2978;42.012;24.880;2023-04-20T11:50:20;6.90;;;5.30;;
5904;SDS011;2978;42.012;24.880;2023-04-20T11:52:46;8.80;;;4.50;;
5904;SDS011;2978;42.012;24.880;2023-04-20T11:55:11;9.00;;;6.10;;
5904;SDS011;2978;42.012;24.880;2023-04-20T11:57:37;9.33;;;5.73;;
5904;SDS011;2978;42.012;24.880;2023-04-20T12:00:02;8.17;;;5.47;;
5904;SDS011;2978;42.012;24.880;2023-04-20T12:02:29;7.33;;;4.93;;
5904;SDS011;2978;42.012;24.880;2023-04-20T12:04:55;4.40;;;3.97;;
5904;SDS011;2978;42.012;24.880;2023-04-20T12:07:21;5.33;;;4.83;;
5904;SDS011;2978;42.012;24.880;2023-04-20T12:09:46;6.53;;;5.47;;
5904;SDS011;2978;42.012;24.880;2023-04-20T12:12:12;9.13;;;5.10;;
5904;SDS011;2978;42.012;24.880;2023-04-20T12:14:37;17.13;;;4.70;;
5904;SDS011;2978;42.012;24.880;2023-04-20T12:17:03;4.50;;;3.83;;
5904;SDS011;2978;42.012;24.880;2023-04-20T12:19:29;4.87;;;3.70;;
5904;SDS011;2978;42.012;24.880;2023-04-20T12:21:55;6.30;;;4.00;;
5904;SDS011;2978;42.012;24.880;2023-04-20T12:24:21;4.50;;;3.17;;
5904;SDS011;2978;42.012;24.880;2023-04-20T12:26:47;6.63;;;4.80;;
5904;SDS011;2978;42.012;24.880;2023-04-20T12:29:12;7.43;;;5.33;;
5904;SDS011;2978;42.012;24.880;2023-04-20T12:31:38;10.13;;;6.10;;
5904;SDS011;2978;42.012;24.880;2023-04-20T12:34:04;7.30;;;5.93;;
5904;SDS011;2978;42.012;24.880;2023-04-20T12:36:29;11.93;;;5.47;;
5904;SDS011;2978;42.012;24.880;2023-04-20T12:38:56;5.17;;;4.67;;
5904;SDS011;2978;42.012;24.880;2023-04-20T12:41:22;7.33;;;5.50;;
5904;SDS011;2978;42.012;24.880;2023-04-20T12:43:50;7.73;;;5.03;;
5904;SDS011;2978;42.012;24.880;2023-04-20T12:46:16;6.87;;;4.90;;
5904;SDS011;2978;42.012;24.880;2023-04-20T12:48:41;7.03;;;5.13;;
5904;SDS011;2978;42.012;24.880;2023-04-20T12:51:09;7.33;;;4.37;;
5904;SDS011;2978;42.012;24.880;2023-04-20T12:53:34;4.27;;;3.87;;
5904;SDS011;2978;42.012;24.880;2023-04-20T12:56:00;5.30;;;4.20;;
5904;SDS011;2978;42.012;24.880;2023-04-20T12:58:25;4.30;;;3.80;;
5904;SDS011;2978;42.012;24.880;2023-04-20T13:00:51;7.40;;;4.40;;
5904;SDS011;2978;42.012;24.880;2023-04-20T13:03:16;5.33;;;4.83;;
5904;SDS011;2978;42.012;24.880;2023-04-20T13:05:42;6.50;;;4.93;;
5904;SDS011;2978;42.012;24.880;2023-04-20T13:08:10;7.30;;;5.13;;
5904;SDS011;2978;42.012;24.880;2023-04-20T13:19:08;7.67;;;5.33;;
5904;SDS011;2978;42.012;24.880;2023-04-20T13:21:33;7.53;;;5.30;;
5904;SDS011;2978;42.012;24.880;2023-04-20T13:23:59;8.67;;;6.30;;
5904;SDS011;2978;42.012;24.880;2023-04-20T13:26:24;7.57;;;5.50;;
5904;SDS011;2978;42.012;24.880;2023-04-20T13:28:50;5.60;;;4.37;;
5904;SDS011;2978;42.012;24.880;2023-04-20T13:44:58;5.80;;;3.97;;
5904;SDS011;2978;42.012;24.880;2023-04-20T13:47:24;7.67;;;4.67;;
5904;SDS011;2978;42.012;24.880;2023-04-20T13:49:49;7.47;;;4.90;;
5904;SDS011;2978;42.012;24.880;2023-04-20T13:52:15;7.67;;;5.60;;
5904;SDS011;2978;42.012;24.880;2023-04-20T13:54:41;7.23;;;5.57;;
5904;SDS011;2978;42.012;24.880;2023-04-20T13:57:06;20.13;;;6.13;;
5904;SDS011;2978;42.012;24.880;2023-04-20T13:59:31;7.37;;;4.90;;
5904;SDS011;2978;42.012;24.880;2023-04-20T14:01:57;6.10;;;4.80;;
5904;SDS011;2978;42.012;24.880;2023-04-20T14:04:22;7.53;;;4.20;;
5904;SDS011;2978;42.012;24.880;2023-04-20T14:06:48;4.83;;;4.07;;
5904;SDS011;2978;42.012;24.880;2023-04-20T14:09:13;5.20;;;4.57;;
5904;SDS011;2978;42.012;24.880;2023-04-20T14:11:39;9.00;;;4.67;;
5904;SDS011;2978;42.012;24.880;2023-04-20T14:14:04;7.70;;;4.80;;
5904;SDS011;2978;42.012;24.880;2023-04-20T14:16:30;7.50;;;4.67;;
5904;SDS011;2978;42.012;24.880;2023-04-20T14:18:56;5.20;;;4.60;;
5904;SDS011;2978;42.012;24.880;2023-04-20T14:21:21;6.53;;;4.90;;
5904;SDS011;2978;42.012;24.880;2023-04-20T14:23:47;6.83;;;4.27;;
5904;SDS011;2978;42.012;24.880;2023-04-20T14:26:17;4.93;;;4.47;;
5904;SDS011;2978;42.012;24.880;2023-04-20T14:28:43;5.00;;;3.90;;
5904;SDS011;2978;42.012;24.880;2023-04-20T14:31:11;8.50;;;4.57;;
5904;SDS011;2978;42.012;24.880;2023-04-20T14:33:36;5.50;;;4.23;;
5904;SDS011;2978;42.012;24.880;2023-04-20T14:36:02;9.47;;;7.17;;
5904;SDS011;2978;42.012;24.880;2023-04-20T14:38:28;7.23;;;4.30;;
5904;SDS011;2978;42.012;24.880;2023-04-20T14:40:53;6.40;;;3.23;;
5904;SDS011;2978;42.012;24.880;2023-04-20T14:43:19;9.33;;;4.40;;
5904;SDS011;2978;42.012;24.880;2023-04-20T17:08:44;9.83;;;4.70;;
5904;SDS011;2978;42.012;24.880;2023-04-20T17:11:11;5.47;;;4.37;;
5904;SDS011;2978;42.012;24.880;2023-04-20T17:13:37;6.87;;;5.50;;
5904;SDS011;2978;42.012;24.880;2023-04-20T17:16:02;4.30;;;3.90;;
5904;SDS011;2978;42.012;24.880;2023-04-20T17:18:28;5.10;;;3.77;;
5904;SDS011;2978;42.012;24.880;2023-04-20T17:20:53;8.53;;;3.60;;
5904;SDS011;2978;42.012;24.880;2023-04-20T17:23:21;6.60;;;4.17;;
5904;SDS011;2978;42.012;24.880;2023-04-20T17:25:46;5.00;;;4.30;;
5904;SDS011;2978;42.012;24.880;2023-04-20T17:28:13;6.30;;;4.00;;
5904;SDS011;2978;42.012;24.880;2023-04-20T17:30:39;9.23;;;4.20;;
5904;SDS011;2978;42.012;24.880;2023-04-20T17:33:05;5.90;;;3.87;;
5904;SDS011;2978;42.012;24.880;2023-04-20T17:35:32;4.73;;;3.30;;
5904;SDS011;2978;42.012;24.880;2023-04-20T17:37:58;4.17;;;3.33;;
5904;SDS011;2978;42.012;24.880;2023-04-20T17:40:23;5.30;;;3.50;;
5904;SDS011;2978;42.012;24.880;2023-04-20T17:42:49;4.73;;;3.27;;
5904;SDS011;2978;42.012;24.880;2023-04-20T17:45:14;3.43;;;2.97;;
5904;SDS011;2978;42.012;24.880;2023-04-20T17:47:40;4.10;;;3.00;;
5904;SDS011;2978;42.012;24.880;2023-04-20T17:50:06;9.00;;;2.93;;
5904;SDS011;2978;42.012;24.880;2023-04-20T17:52:32;6.60;;;2.87;;
5904;SDS011;2978;42.012;24.880;2023-04-20T17:54:57;3.57;;;2.80;;
5904;SDS011;2978;42.012;24.880;2023-04-20T17:57:24;4.60;;;2.60;;
5904;SDS011;2978;42.012;24.880;2023-04-20T17:59:49;3.90;;;2.80;;
5904;SDS011;2978;42.012;24.880;2023-04-20T18:02:15;6.50;;;2.93;;
5904;SDS011;2978;42.012;24.880;2023-04-20T18:04:40;4.10;;;2.73;;
5904;SDS011;2978;42.012;24.880;2023-04-20T18:07:06;24.37;;;3.53;;
5904;SDS011;2978;42.012;24.880;2023-04-20T18:09:31;2.70;;;2.40;;
5904;SDS011;2978;42.012;24.880;2023-04-20T18:11:57;4.13;;;2.40;;
5904;SDS011;2978;42.012;24.880;2023-04-20T18:14:22;3.00;;;2.30;;